sensor_id;sensor_type;location;lat;lon;timestamp;P1;durP1;ratioP1;P2;durP2;ratioP2
61015;SDS011;46902;52.920;6.536;2022-10-22T00:01:07;8.90;;;5.57;;
61015;SDS011;46902;52.920;6.536;2022-10-22T00:03:33;12.73;;;6.35;;
61015;SDS011;46902;52.920;6.536;2022-10-22T00:05:58;9.20;;;5.13;;
61015;SDS011;46902;52.920;6.536;2022-10-22T00:08:24;9.27;;;5.40;;
61015;SDS011;46902;52.920;6.536;2022-10-22T00:10:49;11.38;;;6.25;;
61015;SDS011;46902;52.920;6.536;2022-10-22T00:13:16;12.55;;;6.32;;
61015;SDS011;46902;52.920;6.536;2022-10-22T00:15:43;9.02;;;6.70;;
61015;SDS011;46902;52.920;6.536;2022-10-22T00:18:08;11.13;;;6.07;;
61015;SDS011;46902;52.920;6.536;2022-10-22T00:20:34;11.63;;;6.13;;
61015;SDS011;46902;52.920;6.536;2022-10-22T00:22:59;9.70;;;5.93;;
61015;SDS011;46902;52.920;6.536;2022-10-22T00:25:25;13.18;;;6.15;;
61015;SDS011;46902;52.920;6.536;2022-10-22T00:27:50;9.70;;;5.90;;
61015;SDS011;46902;52.920;6.536;2022-10-22T00:30:16;7.70;;;5.55;;
61015;SDS011;46902;52.920;6.536;2022-10-22T00:32:42;13.10;;;5.90;;
61015;SDS011;46902;52.920;6.536;2022-10-22T00:35:07;9.77;;;5.65;;
61015;SDS011;46902;52.920;6.536;2022-10-22T00:37:33;8.48;;;5.38;;
61015;SDS011;46902;52.920;6.536;2022-10-22T00:39:58;7.50;;;5.35;;
61015;SDS011;46902;52.920;6.536;2022-10-22T00:42:25;12.43;;;6.18;;
61015;SDS011;46902;52.920;6.536;2022-10-22T00:44:57;10.38;;;5.78;;
61015;SDS011;46902;52.920;6.536;2022-10-22T00:47:31;10.48;;;5.97;;
61015;SDS011;46902;52.920;6.536;2022-10-22T00:49:57;10.85;;;5.82;;
61015;SDS011;46902;52.920;6.536;2022-10-22T00:52:24;14.93;;;6.15;;
61015;SDS011;46902;52.920;6.536;2022-10-22T00:54:50;10.70;;;6.40;;
61015;SDS011;46902;52.920;6.536;2022-10-22T00:57:16;11.40;;;5.93;;
61015;SDS011;46902;52.920;6.536;2022-10-22T00:59:43;10.00;;;5.32;;
61015;SDS011;46902;52.920;6.536;2022-10-22T01:02:09;10.77;;;5.85;;
61015;SDS011;46902;52.920;6.536;2022-10-22T01:04:35;8.30;;;5.85;;
61015;SDS011;46902;52.920;6.536;2022-10-22T01:07:01;10.48;;;5.97;;
61015;SDS011;46902;52.920;6.536;2022-10-22T01:13:00;8.40;;;5.45;;
61015;SDS011;46902;52.920;6.536;2022-10-22T01:15:47;13.73;;;6.18;;
61015;SDS011;46902;52.920;6.536;2022-10-22T01:18:30;9.85;;;6.13;;
61015;SDS011;46902;52.920;6.536;2022-10-22T01:21:54;9.23;;;6.10;;
61015;SDS011;46902;52.920;6.536;2022-10-22T01:27:02;10.30;;;6.28;;
61015;SDS011;46902;52.920;6.536;2022-10-22T01:32:35;12.65;;;6.93;;
61015;SDS011;46902;52.920;6.536;2022-10-22T01:35:08;10.43;;;6.03;;
61015;SDS011;46902;52.920;6.536;2022-10-22T01:37:40;9.32;;;6.13;;
61015;SDS011;46902;52.920;6.536;2022-10-22T01:40:09;9.38;;;6.20;;
61015;SDS011;46902;52.920;6.536;2022-10-22T01:42:35;14.70;;;6.55;;
61015;SDS011;46902;52.920;6.536;2022-10-22T01:45:01;14.88;;;6.82;;
61015;SDS011;46902;52.920;6.536;2022-10-22T01:53:08;11.98;;;7.03;;
61015;SDS011;46902;52.920;6.536;2022-10-22T01:58:40;11.00;;;7.28;;
61015;SDS011;46902;52.920;6.536;2022-10-22T02:01:18;11.52;;;7.10;;
61015;SDS011;46902;52.920;6.536;2022-10-22T02:06:25;12.40;;;7.13;;
61015;SDS011;46902;52.920;6.536;2022-10-22T02:08:52;14.45;;;7.30;;
61015;SDS011;46902;52.920;6.536;2022-10-22T02:11:19;12.88;;;7.07;;
61015;SDS011;46902;52.920;6.536;2022-10-22T02:13:50;12.98;;;7.75;;
61015;SDS011;46902;52.920;6.536;2022-10-22T02:16:24;18.00;;;7.40;;
61015;SDS011;46902;52.920;6.536;2022-10-22T02:18:53;12.05;;;7.30;;
61015;SDS011;46902;52.920;6.536;2022-10-22T02:21:20;13.07;;;8.10;;
61015;SDS011;46902;52.920;6.536;2022-10-22T02:23:46;14.65;;;7.80;;
61015;SDS011;46902;52.920;6.536;2022-10-22T02:28:58;13.70;;;7.82;;
61015;SDS011;46902;52.920;6.536;2022-10-22T02:31:35;16.67;;;8.00;;
61015;SDS011;46902;52.920;6.536;2022-10-22T02:34:04;13.13;;;8.52;;
61015;SDS011;46902;52.920;6.536;2022-10-22T02:36:34;13.32;;;8.23;;
61015;SDS011;46902;52.920;6.536;2022-10-22T02:39:02;10.95;;;7.95;;
61015;SDS011;46902;52.920;6.536;2022-10-22T02:41:28;13.50;;;7.60;;
61015;SDS011;46902;52.920;6.536;2022-10-22T02:43:55;17.63;;;9.18;;
61015;SDS011;46902;52.920;6.536;2022-10-22T02:46:20;13.60;;;8.73;;
61015;SDS011;46902;52.920;6.536;2022-10-22T02:48:46;13.88;;;9.07;;
61015;SDS011;46902;52.920;6.536;2022-10-22T02:51:12;11.75;;;7.80;;
61015;SDS011;46902;52.920;6.536;2022-10-22T02:53:38;15.45;;;8.02;;
61015;SDS011;46902;52.920;6.536;2022-10-22T02:56:04;14.43;;;8.82;;
61015;SDS011;46902;52.920;6.536;2022-10-22T02:58:29;15.95;;;8.98;;
61015;SDS011;46902;52.920;6.536;2022-10-22T03:00:55;13.27;;;9.15;;
61015;SDS011;46902;52.920;6.536;2022-10-22T03:03:20;13.60;;;7.65;;
61015;SDS011;46902;52.920;6.536;2022-10-22T03:05:46;14.93;;;9.25;;
61015;SDS011;46902;52.920;6.536;2022-10-22T03:08:11;13.85;;;9.65;;
61015;SDS011;46902;52.920;6.536;2022-10-22T03:10:37;15.18;;;9.02;;
61015;SDS011;46902;52.920;6.536;2022-10-22T03:13:03;15.57;;;9.85;;
61015;SDS011;46902;52.920;6.536;2022-10-22T03:15:28;13.98;;;9.75;;
61015;SDS011;46902;52.920;6.536;2022-10-22T03:17:54;16.05;;;10.10;;
61015;SDS011;46902;52.920;6.536;2022-10-22T03:20:19;14.15;;;10.18;;
61015;SDS011;46902;52.920;6.536;2022-10-22T03:22:45;12.85;;;8.80;;
61015;SDS011;46902;52.920;6.536;2022-10-22T03:25:11;12.57;;;9.40;;
61015;SDS011;46902;52.920;6.536;2022-10-22T03:27:40;15.48;;;9.82;;
61015;SDS011;46902;52.920;6.536;2022-10-22T03:30:07;17.10;;;9.63;;
61015;SDS011;46902;52.920;6.536;2022-10-22T03:32:33;14.93;;;10.10;;
61015;SDS011;46902;52.920;6.536;2022-10-22T03:34:58;14.23;;;9.38;;
61015;SDS011;46902;52.920;6.536;2022-10-22T03:37:24;14.80;;;8.77;;
61015;SDS011;46902;52.920;6.536;2022-10-22T03:39:51;14.43;;;8.85;;
61015;SDS011;46902;52.920;6.536;2022-10-22T03:42:17;16.92;;;10.43;;
61015;SDS011;46902;52.920;6.536;2022-10-22T03:44:43;14.68;;;10.00;;
61015;SDS011;46902;52.920;6.536;2022-10-22T03:47:09;14.35;;;10.48;;
61015;SDS011;46902;52.920;6.536;2022-10-22T03:49:35;12.63;;;9.45;;
61015;SDS011;46902;52.920;6.536;2022-10-22T03:52:11;14.45;;;9.45;;
61015;SDS011;46902;52.920;6.536;2022-10-22T03:54:38;12.00;;;9.20;;
61015;SDS011;46902;52.920;6.536;2022-10-22T03:57:05;15.43;;;10.50;;
61015;SDS011;46902;52.920;6.536;2022-10-22T03:59:38;11.65;;;9.27;;
61015;SDS011;46902;52.920;6.536;2022-10-22T04:02:05;12.30;;;8.88;;
61015;SDS011;46902;52.920;6.536;2022-10-22T04:04:32;15.90;;;10.10;;
61015;SDS011;46902;52.920;6.536;2022-10-22T04:06:57;14.25;;;10.60;;
61015;SDS011;46902;52.920;6.536;2022-10-22T04:09:23;11.57;;;8.88;;
61015;SDS011;46902;52.920;6.536;2022-10-22T04:11:49;15.93;;;10.35;;
61015;SDS011;46902;52.920;6.536;2022-10-22T04:14:14;13.85;;;9.68;;
61015;SDS011;46902;52.920;6.536;2022-10-22T04:16:40;13.60;;;9.93;;
61015;SDS011;46902;52.920;6.536;2022-10-22T04:19:06;14.90;;;10.55;;
61015;SDS011;46902;52.920;6.536;2022-10-22T04:21:32;13.32;;;10.15;;
61015;SDS011;46902;52.920;6.536;2022-10-22T04:23:58;12.32;;;9.00;;
61015;SDS011;46902;52.920;6.536;2022-10-22T04:26:23;16.52;;;10.45;;
61015;SDS011;46902;52.920;6.536;2022-10-22T04:28:50;13.77;;;9.00;;
61015;SDS011;46902;52.920;6.536;2022-10-22T04:31:17;19.83;;;11.38;;
61015;SDS011;46902;52.920;6.536;2022-10-22T04:33:51;15.93;;;10.73;;
61015;SDS011;46902;52.920;6.536;2022-10-22T04:36:20;14.80;;;10.95;;
61015;SDS011;46902;52.920;6.536;2022-10-22T04:38:46;15.52;;;10.00;;
61015;SDS011;46902;52.920;6.536;2022-10-22T04:41:18;16.10;;;10.77;;
61015;SDS011;46902;52.920;6.536;2022-10-22T04:43:45;15.85;;;10.65;;
61015;SDS011;46902;52.920;6.536;2022-10-22T04:46:11;15.35;;;10.30;;
61015;SDS011;46902;52.920;6.536;2022-10-22T04:48:39;12.52;;;10.07;;
61015;SDS011;46902;52.920;6.536;2022-10-22T04:51:06;15.07;;;9.48;;
61015;SDS011;46902;52.920;6.536;2022-10-22T04:53:33;15.55;;;10.07;;
61015;SDS011;46902;52.920;6.536;2022-10-22T04:56:12;13.18;;;9.02;;
61015;SDS011;46902;52.920;6.536;2022-10-22T04:58:46;15.85;;;10.80;;
61015;SDS011;46902;52.920;6.536;2022-10-22T05:01:17;15.77;;;10.13;;
61015;SDS011;46902;52.920;6.536;2022-10-22T05:03:44;16.88;;;10.07;;
61015;SDS011;46902;52.920;6.536;2022-10-22T05:06:11;15.48;;;9.40;;
61015;SDS011;46902;52.920;6.536;2022-10-22T05:08:37;18.38;;;10.65;;
61015;SDS011;46902;52.920;6.536;2022-10-22T05:11:10;15.00;;;10.70;;
61015;SDS011;46902;52.920;6.536;2022-10-22T05:13:44;15.68;;;9.82;;
61015;SDS011;46902;52.920;6.536;2022-10-22T05:16:10;18.58;;;10.13;;
61015;SDS011;46902;52.920;6.536;2022-10-22T05:18:37;19.05;;;10.70;;
61015;SDS011;46902;52.920;6.536;2022-10-22T05:21:07;15.27;;;10.15;;
61015;SDS011;46902;52.920;6.536;2022-10-22T05:23:38;14.32;;;9.48;;
61015;SDS011;46902;52.920;6.536;2022-10-22T05:26:04;14.35;;;10.77;;
61015;SDS011;46902;52.920;6.536;2022-10-22T05:28:31;19.77;;;10.38;;
61015;SDS011;46902;52.920;6.536;2022-10-22T05:30:58;17.80;;;10.05;;
61015;SDS011;46902;52.920;6.536;2022-10-22T05:33:25;18.50;;;10.18;;
61015;SDS011;46902;52.920;6.536;2022-10-22T05:35:51;14.07;;;10.00;;
61015;SDS011;46902;52.920;6.536;2022-10-22T05:38:17;17.23;;;9.45;;
61015;SDS011;46902;52.920;6.536;2022-10-22T05:40:43;18.15;;;9.88;;
61015;SDS011;46902;52.920;6.536;2022-10-22T05:43:09;14.57;;;9.52;;
61015;SDS011;46902;52.920;6.536;2022-10-22T05:45:35;16.33;;;9.48;;
61015;SDS011;46902;52.920;6.536;2022-10-22T05:48:02;17.75;;;9.90;;
61015;SDS011;46902;52.920;6.536;2022-10-22T05:50:27;14.98;;;9.77;;
61015;SDS011;46902;52.920;6.536;2022-10-22T05:52:53;14.00;;;9.75;;
61015;SDS011;46902;52.920;6.536;2022-10-22T05:55:18;19.65;;;10.38;;
61015;SDS011;46902;52.920;6.536;2022-10-22T05:57:44;14.48;;;8.85;;
61015;SDS011;46902;52.920;6.536;2022-10-22T06:00:10;14.48;;;9.30;;
61015;SDS011;46902;52.920;6.536;2022-10-22T06:02:36;14.57;;;9.60;;
61015;SDS011;46902;52.920;6.536;2022-10-22T06:05:01;14.90;;;9.30;;
61015;SDS011;46902;52.920;6.536;2022-10-22T06:07:27;16.88;;;9.68;;
61015;SDS011;46902;52.920;6.536;2022-10-22T06:09:53;16.02;;;9.65;;
61015;SDS011;46902;52.920;6.536;2022-10-22T06:12:18;14.25;;;9.18;;
61015;SDS011;46902;52.920;6.536;2022-10-22T06:14:44;13.05;;;9.23;;
61015;SDS011;46902;52.920;6.536;2022-10-22T06:17:10;16.25;;;9.90;;
61015;SDS011;46902;52.920;6.536;2022-10-22T06:19:37;16.35;;;9.68;;
61015;SDS011;46902;52.920;6.536;2022-10-22T06:22:02;14.13;;;8.65;;
61015;SDS011;46902;52.920;6.536;2022-10-22T06:24:28;13.95;;;9.02;;
61015;SDS011;46902;52.920;6.536;2022-10-22T06:26:54;14.30;;;8.18;;
61015;SDS011;46902;52.920;6.536;2022-10-22T06:29:20;12.02;;;9.07;;
61015;SDS011;46902;52.920;6.536;2022-10-22T06:31:46;17.48;;;9.27;;
61015;SDS011;46902;52.920;6.536;2022-10-22T06:34:12;18.48;;;8.98;;
61015;SDS011;46902;52.920;6.536;2022-10-22T06:36:39;14.52;;;8.55;;
61015;SDS011;46902;52.920;6.536;2022-10-22T06:39:08;17.02;;;8.30;;
61015;SDS011;46902;52.920;6.536;2022-10-22T06:41:35;13.75;;;8.32;;
61015;SDS011;46902;52.920;6.536;2022-10-22T06:44:01;18.27;;;8.00;;
61015;SDS011;46902;52.920;6.536;2022-10-22T06:46:26;16.92;;;8.13;;
61015;SDS011;46902;52.920;6.536;2022-10-22T06:48:59;12.52;;;7.63;;
61015;SDS011;46902;52.920;6.536;2022-10-22T06:51:27;14.70;;;8.30;;
61015;SDS011;46902;52.920;6.536;2022-10-22T06:53:53;12.52;;;7.78;;
61015;SDS011;46902;52.920;6.536;2022-10-22T06:56:21;14.25;;;7.50;;
61015;SDS011;46902;52.920;6.536;2022-10-22T06:58:51;14.52;;;7.53;;
61015;SDS011;46902;52.920;6.536;2022-10-22T07:01:20;13.15;;;7.85;;
61015;SDS011;46902;52.920;6.536;2022-10-22T07:03:49;18.58;;;7.65;;
61015;SDS011;46902;52.920;6.536;2022-10-22T07:06:16;14.38;;;7.50;;
61015;SDS011;46902;52.920;6.536;2022-10-22T07:08:42;18.10;;;7.47;;
61015;SDS011;46902;52.920;6.536;2022-10-22T07:11:09;19.63;;;7.68;;
61015;SDS011;46902;52.920;6.536;2022-10-22T07:13:43;16.70;;;7.68;;
61015;SDS011;46902;52.920;6.536;2022-10-22T07:16:09;15.20;;;6.95;;
61015;SDS011;46902;52.920;6.536;2022-10-22T07:18:36;16.73;;;7.35;;
61015;SDS011;46902;52.920;6.536;2022-10-22T07:21:03;13.30;;;7.07;;
61015;SDS011;46902;52.920;6.536;2022-10-22T07:23:29;11.90;;;7.10;;
61015;SDS011;46902;52.920;6.536;2022-10-22T07:25:55;16.42;;;6.97;;
61015;SDS011;46902;52.920;6.536;2022-10-22T07:28:21;11.43;;;6.50;;
61015;SDS011;46902;52.920;6.536;2022-10-22T07:30:47;16.23;;;7.40;;
61015;SDS011;46902;52.920;6.536;2022-10-22T07:33:13;10.57;;;6.35;;
61015;SDS011;46902;52.920;6.536;2022-10-22T07:35:39;14.98;;;6.80;;
61015;SDS011;46902;52.920;6.536;2022-10-22T07:38:06;12.63;;;6.40;;
61015;SDS011;46902;52.920;6.536;2022-10-22T07:40:32;15.90;;;6.85;;
61015;SDS011;46902;52.920;6.536;2022-10-22T07:42:58;18.67;;;6.82;;
61015;SDS011;46902;52.920;6.536;2022-10-22T07:45:24;12.80;;;6.65;;
61015;SDS011;46902;52.920;6.536;2022-10-22T07:47:49;14.10;;;6.93;;
61015;SDS011;46902;52.920;6.536;2022-10-22T07:50:15;14.73;;;6.40;;
61015;SDS011;46902;52.920;6.536;2022-10-22T07:52:41;14.15;;;6.05;;
61015;SDS011;46902;52.920;6.536;2022-10-22T07:55:08;13.75;;;5.82;;
61015;SDS011;46902;52.920;6.536;2022-10-22T07:57:34;14.38;;;6.03;;
61015;SDS011;46902;52.920;6.536;2022-10-22T08:00:01;15.32;;;6.05;;
61015;SDS011;46902;52.920;6.536;2022-10-22T08:02:31;15.48;;;5.82;;
61015;SDS011;46902;52.920;6.536;2022-10-22T08:04:56;16.77;;;5.88;;
61015;SDS011;46902;52.920;6.536;2022-10-22T08:07:23;16.10;;;6.05;;
61015;SDS011;46902;52.920;6.536;2022-10-22T08:09:48;14.75;;;5.45;;
61015;SDS011;46902;52.920;6.536;2022-10-22T08:12:14;15.20;;;5.65;;
61015;SDS011;46902;52.920;6.536;2022-10-22T08:14:40;13.20;;;5.32;;
61015;SDS011;46902;52.920;6.536;2022-10-22T08:17:05;13.02;;;5.60;;
61015;SDS011;46902;52.920;6.536;2022-10-22T08:19:31;13.50;;;6.15;;
61015;SDS011;46902;52.920;6.536;2022-10-22T08:21:57;17.23;;;5.93;;
61015;SDS011;46902;52.920;6.536;2022-10-22T08:24:23;14.23;;;6.10;;
61015;SDS011;46902;52.920;6.536;2022-10-22T08:26:51;15.65;;;5.88;;
61015;SDS011;46902;52.920;6.536;2022-10-22T08:29:18;14.52;;;5.70;;
61015;SDS011;46902;52.920;6.536;2022-10-22T08:31:46;15.32;;;5.45;;
61015;SDS011;46902;52.920;6.536;2022-10-22T08:34:12;15.40;;;5.30;;
61015;SDS011;46902;52.920;6.536;2022-10-22T08:36:37;14.38;;;5.07;;
61015;SDS011;46902;52.920;6.536;2022-10-22T08:39:03;17.13;;;5.35;;
61015;SDS011;46902;52.920;6.536;2022-10-22T08:41:29;16.75;;;5.75;;
61015;SDS011;46902;52.920;6.536;2022-10-22T08:49:27;12.50;;;3.92;;
61015;SDS011;46902;52.920;6.536;2022-10-22T08:51:57;12.82;;;3.92;;
61015;SDS011;46902;52.920;6.536;2022-10-22T08:54:27;10.25;;;3.38;;
61015;SDS011;46902;52.920;6.536;2022-10-22T08:57:10;15.32;;;3.78;;
61015;SDS011;46902;52.920;6.536;2022-10-22T08:59:45;9.98;;;3.50;;
61015;SDS011;46902;52.920;6.536;2022-10-22T09:07:46;11.88;;;3.40;;
61015;SDS011;46902;52.920;6.536;2022-10-22T09:10:15;10.05;;;3.05;;
61015;SDS011;46902;52.920;6.536;2022-10-22T09:12:42;15.00;;;3.72;;
61015;SDS011;46902;52.920;6.536;2022-10-22T09:15:15;12.18;;;3.47;;
61015;SDS011;46902;52.920;6.536;2022-10-22T09:20:26;11.07;;;3.88;;
61015;SDS011;46902;52.920;6.536;2022-10-22T09:23:00;13.15;;;3.92;;
61015;SDS011;46902;52.920;6.536;2022-10-22T09:25:43;13.05;;;3.58;;
61015;SDS011;46902;52.920;6.536;2022-10-22T09:28:11;17.25;;;3.63;;
61015;SDS011;46902;52.920;6.536;2022-10-22T09:30:37;11.48;;;3.47;;
61015;SDS011;46902;52.920;6.536;2022-10-22T09:38:20;13.57;;;3.40;;
61015;SDS011;46902;52.920;6.536;2022-10-22T09:40:50;14.50;;;3.88;;
61015;SDS011;46902;52.920;6.536;2022-10-22T09:43:18;10.15;;;3.50;;
61015;SDS011;46902;52.920;6.536;2022-10-22T09:45:44;12.75;;;3.65;;
61015;SDS011;46902;52.920;6.536;2022-10-22T09:48:19;14.52;;;3.72;;
61015;SDS011;46902;52.920;6.536;2022-10-22T09:50:54;15.48;;;3.75;;
61015;SDS011;46902;52.920;6.536;2022-10-22T09:53:47;13.85;;;4.03;;
61015;SDS011;46902;52.920;6.536;2022-10-22T09:56:27;11.57;;;3.45;;
61015;SDS011;46902;52.920;6.536;2022-10-22T09:59:02;10.95;;;3.90;;
61015;SDS011;46902;52.920;6.536;2022-10-22T10:01:32;14.75;;;4.05;;
61015;SDS011;46902;52.920;6.536;2022-10-22T10:04:08;9.60;;;3.90;;
61015;SDS011;46902;52.920;6.536;2022-10-22T10:06:37;15.98;;;4.15;;
61015;SDS011;46902;52.920;6.536;2022-10-22T10:09:12;12.55;;;3.85;;
61015;SDS011;46902;52.920;6.536;2022-10-22T10:14:40;12.82;;;4.40;;
61015;SDS011;46902;52.920;6.536;2022-10-22T10:17:29;16.90;;;4.10;;
61015;SDS011;46902;52.920;6.536;2022-10-22T10:23:02;14.32;;;4.30;;
61015;SDS011;46902;52.920;6.536;2022-10-22T10:25:36;12.05;;;3.70;;
61015;SDS011;46902;52.920;6.536;2022-10-22T10:30:43;15.55;;;4.60;;
61015;SDS011;46902;52.920;6.536;2022-10-22T10:35:57;11.95;;;4.20;;
61015;SDS011;46902;52.920;6.536;2022-10-22T10:46:46;15.57;;;4.63;;
61015;SDS011;46902;52.920;6.536;2022-10-22T10:49:32;15.45;;;4.50;;
61015;SDS011;46902;52.920;6.536;2022-10-22T10:54:37;17.10;;;4.80;;
61015;SDS011;46902;52.920;6.536;2022-10-22T10:57:24;14.38;;;4.75;;
61015;SDS011;46902;52.920;6.536;2022-10-22T10:59:57;12.52;;;4.93;;
61015;SDS011;46902;52.920;6.536;2022-10-22T11:05:21;13.18;;;5.28;;
61015;SDS011;46902;52.920;6.536;2022-10-22T11:13:14;12.50;;;4.60;;
61015;SDS011;46902;52.920;6.536;2022-10-22T11:15:47;15.98;;;5.10;;
61015;SDS011;46902;52.920;6.536;2022-10-22T11:18:29;17.25;;;5.70;;
61015;SDS011;46902;52.920;6.536;2022-10-22T11:21:06;10.50;;;5.43;;
61015;SDS011;46902;52.920;6.536;2022-10-22T11:23:47;13.15;;;5.40;;
61015;SDS011;46902;52.920;6.536;2022-10-22T11:29:34;11.68;;;5.32;;
61015;SDS011;46902;52.920;6.536;2022-10-22T11:32:17;14.02;;;5.80;;
61015;SDS011;46902;52.920;6.536;2022-10-22T11:35:03;11.63;;;5.40;;
61015;SDS011;46902;52.920;6.536;2022-10-22T11:37:32;14.77;;;5.78;;
61015;SDS011;46902;52.920;6.536;2022-10-22T11:40:19;13.93;;;5.55;;
61015;SDS011;46902;52.920;6.536;2022-10-22T11:42:51;11.57;;;5.05;;
61015;SDS011;46902;52.920;6.536;2022-10-22T11:47:52;12.45;;;5.20;;
61015;SDS011;46902;52.920;6.536;2022-10-22T11:50:27;13.73;;;5.30;;
61015;SDS011;46902;52.920;6.536;2022-10-22T12:01:39;13.75;;;4.82;;
61015;SDS011;46902;52.920;6.536;2022-10-22T12:03:43;12.48;;;4.20;;
61015;SDS011;46902;52.920;6.536;2022-10-22T12:06:18;14.52;;;5.05;;
61015;SDS011;46902;52.920;6.536;2022-10-22T12:16:55;12.32;;;4.93;;
61015;SDS011;46902;52.920;6.536;2022-10-22T12:19:36;16.90;;;5.28;;
61015;SDS011;46902;52.920;6.536;2022-10-22T12:24:34;18.40;;;4.90;;
61015;SDS011;46902;52.920;6.536;2022-10-22T12:27:02;12.98;;;4.65;;
61015;SDS011;46902;52.920;6.536;2022-10-22T12:29:29;13.05;;;4.32;;
61015;SDS011;46902;52.920;6.536;2022-10-22T12:31:56;17.40;;;4.40;;
61015;SDS011;46902;52.920;6.536;2022-10-22T12:34:26;10.18;;;4.68;;
61015;SDS011;46902;52.920;6.536;2022-10-22T12:36:53;11.50;;;4.22;;
61015;SDS011;46902;52.920;6.536;2022-10-22T12:39:20;13.55;;;4.60;;
61015;SDS011;46902;52.920;6.536;2022-10-22T12:41:49;15.80;;;4.13;;
61015;SDS011;46902;52.920;6.536;2022-10-22T12:44:17;12.52;;;4.47;;
61015;SDS011;46902;52.920;6.536;2022-10-22T12:46:43;12.77;;;4.22;;
61015;SDS011;46902;52.920;6.536;2022-10-22T12:49:21;12.90;;;4.28;;
61015;SDS011;46902;52.920;6.536;2022-10-22T12:51:51;11.90;;;4.05;;
61015;SDS011;46902;52.920;6.536;2022-10-22T12:54:27;12.27;;;3.95;;
61015;SDS011;46902;52.920;6.536;2022-10-22T12:56:54;11.38;;;4.10;;
61015;SDS011;46902;52.920;6.536;2022-10-22T13:01:50;13.77;;;4.70;;
61015;SDS011;46902;52.920;6.536;2022-10-22T13:04:19;9.38;;;3.83;;
61015;SDS011;46902;52.920;6.536;2022-10-22T13:07:04;14.05;;;4.07;;
61015;SDS011;46902;52.920;6.536;2022-10-22T13:09:46;12.38;;;3.92;;
61015;SDS011;46902;52.920;6.536;2022-10-22T13:12:23;9.93;;;3.15;;
61015;SDS011;46902;52.920;6.536;2022-10-22T13:15:16;11.35;;;3.10;;
61015;SDS011;46902;52.920;6.536;2022-10-22T13:18:16;10.25;;;2.97;;
61015;SDS011;46902;52.920;6.536;2022-10-22T13:20:53;9.20;;;2.20;;
61015;SDS011;46902;52.920;6.536;2022-10-22T13:23:21;10.60;;;2.70;;
61015;SDS011;46902;52.920;6.536;2022-10-22T13:26:02;9.73;;;2.55;;
61015;SDS011;46902;52.920;6.536;2022-10-22T13:28:36;9.70;;;2.72;;
61015;SDS011;46902;52.920;6.536;2022-10-22T13:31:14;10.57;;;2.20;;
61015;SDS011;46902;52.920;6.536;2022-10-22T13:33:43;11.35;;;2.67;;
61015;SDS011;46902;52.920;6.536;2022-10-22T13:36:14;9.38;;;1.35;;
61015;SDS011;46902;52.920;6.536;2022-10-22T13:38:41;7.30;;;1.40;;
61015;SDS011;46902;52.920;6.536;2022-10-22T13:41:17;6.32;;;1.30;;
61015;SDS011;46902;52.920;6.536;2022-10-22T13:43:46;6.75;;;1.15;;
61015;SDS011;46902;52.920;6.536;2022-10-22T13:46:11;10.18;;;1.55;;
61015;SDS011;46902;52.920;6.536;2022-10-22T13:48:37;4.70;;;1.25;;
61015;SDS011;46902;52.920;6.536;2022-10-22T13:51:03;6.68;;;1.00;;
61015;SDS011;46902;52.920;6.536;2022-10-22T13:53:31;5.80;;;0.98;;
61015;SDS011;46902;52.920;6.536;2022-10-22T13:55:57;7.00;;;1.33;;
61015;SDS011;46902;52.920;6.536;2022-10-22T13:58:23;7.88;;;0.98;;
61015;SDS011;46902;52.920;6.536;2022-10-22T14:00:50;5.93;;;1.20;;
61015;SDS011;46902;52.920;6.536;2022-10-22T14:03:20;7.32;;;1.48;;
61015;SDS011;46902;52.920;6.536;2022-10-22T14:05:49;9.23;;;1.50;;
61015;SDS011;46902;52.920;6.536;2022-10-22T14:08:15;4.13;;;1.17;;
61015;SDS011;46902;52.920;6.536;2022-10-22T14:10:43;6.50;;;1.42;;
61015;SDS011;46902;52.920;6.536;2022-10-22T14:13:10;6.43;;;1.42;;
61015;SDS011;46902;52.920;6.536;2022-10-22T14:15:39;10.60;;;1.88;;
61015;SDS011;46902;52.920;6.536;2022-10-22T14:18:05;8.30;;;1.65;;
61015;SDS011;46902;52.920;6.536;2022-10-22T14:20:32;8.43;;;1.50;;
61015;SDS011;46902;52.920;6.536;2022-10-22T14:23:01;5.70;;;1.40;;
61015;SDS011;46902;52.920;6.536;2022-10-22T14:25:37;8.32;;;1.60;;
61015;SDS011;46902;52.920;6.536;2022-10-22T14:28:02;11.00;;;1.90;;
61015;SDS011;46902;52.920;6.536;2022-10-22T14:30:28;13.07;;;2.00;;
61015;SDS011;46902;52.920;6.536;2022-10-22T14:32:54;9.73;;;1.67;;
61015;SDS011;46902;52.920;6.536;2022-10-22T14:35:22;11.63;;;1.63;;
61015;SDS011;46902;52.920;6.536;2022-10-22T14:37:47;12.15;;;1.85;;
61015;SDS011;46902;52.920;6.536;2022-10-22T14:40:15;13.98;;;1.90;;
61015;SDS011;46902;52.920;6.536;2022-10-22T14:42:43;7.53;;;1.92;;
61015;SDS011;46902;52.920;6.536;2022-10-22T14:47:41;11.45;;;2.05;;
61015;SDS011;46902;52.920;6.536;2022-10-22T14:50:07;14.65;;;1.90;;
61015;SDS011;46902;52.920;6.536;2022-10-22T14:52:34;12.93;;;2.22;;
61015;SDS011;46902;52.920;6.536;2022-10-22T14:54:59;9.80;;;2.47;;
61015;SDS011;46902;52.920;6.536;2022-10-22T14:57:25;15.27;;;2.33;;
61015;SDS011;46902;52.920;6.536;2022-10-22T14:59:50;11.63;;;2.22;;
61015;SDS011;46902;52.920;6.536;2022-10-22T15:02:19;14.68;;;2.40;;
61015;SDS011;46902;52.920;6.536;2022-10-22T15:04:45;16.52;;;2.47;;
61015;SDS011;46902;52.920;6.536;2022-10-22T15:07:11;13.40;;;2.42;;
61015;SDS011;46902;52.920;6.536;2022-10-22T15:09:37;12.82;;;2.33;;
61015;SDS011;46902;52.920;6.536;2022-10-22T15:12:03;15.80;;;2.53;;
61015;SDS011;46902;52.920;6.536;2022-10-22T15:14:28;16.55;;;2.90;;
61015;SDS011;46902;52.920;6.536;2022-10-22T15:16:54;17.08;;;2.95;;
61015;SDS011;46902;52.920;6.536;2022-10-22T15:19:20;14.52;;;2.38;;
61015;SDS011;46902;52.920;6.536;2022-10-22T15:21:45;11.18;;;2.00;;
61015;SDS011;46902;52.920;6.536;2022-10-22T15:24:11;16.02;;;2.70;;
61015;SDS011;46902;52.920;6.536;2022-10-22T15:26:36;14.60;;;2.88;;
61015;SDS011;46902;52.920;6.536;2022-10-22T15:29:03;12.35;;;2.10;;
61015;SDS011;46902;52.920;6.536;2022-10-22T15:36:47;16.88;;;2.90;;
61015;SDS011;46902;52.920;6.536;2022-10-22T15:39:12;15.38;;;2.80;;
61015;SDS011;46902;52.920;6.536;2022-10-22T15:41:38;17.42;;;2.80;;
61015;SDS011;46902;52.920;6.536;2022-10-22T15:44:04;12.77;;;2.50;;
61015;SDS011;46902;52.920;6.536;2022-10-22T15:46:30;17.60;;;3.13;;
61015;SDS011;46902;52.920;6.536;2022-10-22T15:48:57;13.27;;;2.63;;
61015;SDS011;46902;52.920;6.536;2022-10-22T15:51:23;18.67;;;2.42;;
61015;SDS011;46902;52.920;6.536;2022-10-22T15:53:52;13.65;;;2.42;;
61015;SDS011;46902;52.920;6.536;2022-10-22T15:56:20;17.77;;;3.28;;
61015;SDS011;46902;52.920;6.536;2022-10-22T15:58:46;18.20;;;2.67;;
61015;SDS011;46902;52.920;6.536;2022-10-22T16:01:12;18.98;;;3.08;;
61015;SDS011;46902;52.920;6.536;2022-10-22T16:03:39;19.98;;;2.95;;
61015;SDS011;46902;52.920;6.536;2022-10-22T16:06:06;14.50;;;2.47;;
61015;SDS011;46902;52.920;6.536;2022-10-22T16:08:33;17.00;;;2.70;;
61015;SDS011;46902;52.920;6.536;2022-10-22T16:10:58;13.20;;;2.28;;
61015;SDS011;46902;52.920;6.536;2022-10-22T16:13:24;18.75;;;3.35;;
61015;SDS011;46902;52.920;6.536;2022-10-22T16:15:50;16.33;;;2.90;;
61015;SDS011;46902;52.920;6.536;2022-10-22T16:18:17;15.52;;;3.15;;
61015;SDS011;46902;52.920;6.536;2022-10-22T16:20:43;20.35;;;2.67;;
61015;SDS011;46902;52.920;6.536;2022-10-22T16:23:09;23.02;;;3.30;;
61015;SDS011;46902;52.920;6.536;2022-10-22T16:25:41;19.95;;;3.60;;
61015;SDS011;46902;52.920;6.536;2022-10-22T16:28:07;19.08;;;3.13;;
61015;SDS011;46902;52.920;6.536;2022-10-22T16:30:35;18.77;;;3.25;;
61015;SDS011;46902;52.920;6.536;2022-10-22T16:33:02;23.48;;;3.25;;